Time;durP1;ratioP1;P1;durP2;ratioP2;P2;SDS_P1;SDS_P2;PMS_P1;PMS_P2;Temp;Humidity;BMP_temperature;BMP_pressure;BME280_temperature;BME280_humidity;BME280_pressure;Samples;Min_cycle;Max_cycle;Signal;HPM_P1;HPM_P2
2023/10/05 00:03:46;;;;;;;15.80;7.20;;;;;;;12.61;77.19;99519.09;5024586;28;20038;-81
2023/10/05 00:06:14;;;;;;;18.73;7.60;;;;;;;12.53;78.06;99532.91;5029687;28;20037;-81
2023/10/05 00:08:45;;;;;;;16.80;7.00;;;;;;;12.66;77.60;99529.06;5031067;28;20135;-81
2023/10/05 00:11:57;;;;;;;16.77;8.55;;;;;;;12.47;78.61;99525.81;5030094;28;20075;-80
2023/10/05 00:13:59;;;;;;;18.90;7.63;;;;;;;12.61;77.75;99515.59;5024496;28;20039;-81
2023/10/05 00:16:37;;;;;;;14.25;7.18;;;;;;;12.55;77.64;99500.50;5031085;28;20057;-81
2023/10/05 00:19:11;;;;;;;16.48;7.53;;;;;;;12.43;78.12;99500.59;5017830;28;20040;-81
2023/10/05 00:24:16;;;;;;;15.68;7.90;;;;;;;12.19;79.08;99515.19;5020179;28;20038;-80
2023/10/05 00:26:43;;;;;;;14.25;7.15;;;;;;;12.47;78.60;99523.13;5008213;28;20029;-80
2023/10/05 00:31:44;;;;;;;17.23;7.78;;;;;;;12.29;79.74;99509.19;5030226;28;20041;-81
2023/10/05 00:34:15;;;;;;;14.05;7.32;;;;;;;12.32;79.39;99495.34;5031242;28;20075;-80
2023/10/05 00:36:46;;;;;;;20.38;8.13;;;;;;;12.38;78.88;99494.34;5003862;28;20073;-81
2023/10/05 00:39:15;;;;;;;20.50;9.13;;;;;;;12.48;78.54;99489.16;5025804;28;20408;-81
2023/10/05 00:41:40;;;;;;;19.25;7.25;;;;;;;12.49;78.61;99496.94;5019724;28;20159;-81
2023/10/05 00:44:06;;;;;;;21.30;8.32;;;;;;;12.62;78.22;99499.28;5030251;28;20468;-81
2023/10/05 00:46:37;;;;;;;18.33;6.97;;;;;;;12.61;78.30;99484.28;5028369;28;20022;-81
2023/10/05 00:49:14;;;;;;;14.90;8.40;;;;;;;12.55;78.71;99489.81;5024983;28;20469;-82
2023/10/05 00:51:52;;;;;;;17.67;7.35;;;;;;;12.75;78.33;99485.53;5021323;28;20057;-82
2023/10/05 00:54:22;;;;;;;15.82;7.20;;;;;;;12.48;78.72;99484.63;5024333;28;20129;-81
2023/10/05 00:56:48;;;;;;;21.48;6.85;;;;;;;12.57;78.52;99466.25;5027512;28;20025;-81
2023/10/05 00:59:15;;;;;;;21.85;7.28;;;;;;;12.60;78.14;99463.88;5025112;28;20041;-81
2023/10/05 01:10:22;;;;;;;17.58;7.95;;;;;;;12.63;78.02;99484.03;5026397;28;20029;-82
2023/10/05 01:12:43;;;;;;;18.85;7.95;;;;;;;12.59;77.77;99467.66;5026320;28;20041;-81
2023/10/05 01:15:14;;;;;;;15.68;6.88;;;;;;;12.34;78.62;99463.78;5029058;28;20052;-81
2023/10/05 01:17:40;;;;;;;17.08;7.25;;;;;;;12.25;79.85;99462.56;5025702;28;20030;-81
2023/10/05 01:20:13;;;;;;;15.57;6.90;;;;;;;12.49;78.82;99455.97;5029284;28;20036;-80
2023/10/05 01:22:39;;;;;;;20.00;7.32;;;;;;;12.46;78.77;99478.69;5013465;28;20053;-81
2023/10/05 01:25:06;;;;;;;19.10;7.82;;;;;;;12.52;78.41;99463.50;5029259;28;20025;-81
2023/10/05 01:27:32;;;;;;;14.60;8.02;;;;;;;12.51;78.68;99488.66;5029331;28;20029;-81
2023/10/05 01:30:03;;;;;;;13.25;7.18;;;;;;;12.23;79.40;99480.75;5025822;28;20028;-81
2023/10/05 01:32:28;;;;;;;14.05;6.68;;;;;;;12.46;78.64;99472.53;5019715;28;20026;-81
2023/10/05 01:34:53;;;;;;;15.48;7.15;;;;;;;12.33;78.87;99467.50;5022535;28;20052;-80
2023/10/05 01:37:24;;;;;;;17.35;7.22;;;;;;;12.20;79.23;99468.66;5010751;28;20030;-81
2023/10/05 01:39:50;;;;;;;16.15;6.70;;;;;;;12.19;79.00;99469.69;5012837;28;20037;-82
2023/10/05 01:42:16;;;;;;;23.35;7.40;;;;;;;12.19;79.00;99474.25;5022582;28;20537;-81
2023/10/05 01:44:47;;;;;;;17.00;7.70;;;;;;;12.33;78.96;99488.91;5027455;28;20112;-81
2023/10/05 01:47:16;;;;;;;18.80;7.28;;;;;;;12.35;78.49;99478.78;5027697;28;20033;-81
2023/10/05 01:49:43;;;;;;;21.63;6.72;;;;;;;12.31;79.08;99494.53;5008367;28;21118;-81
2023/10/05 01:52:11;;;;;;;26.10;7.45;;;;;;;12.32;78.94;99490.78;5024757;28;20406;-81
2023/10/05 01:54:37;;;;;;;15.48;7.28;;;;;;;12.36;79.15;99486.56;5024903;28;20653;-81
2023/10/05 01:57:06;;;;;;;17.42;7.57;;;;;;;12.22;79.47;99489.81;5021131;28;20116;-81
2023/10/05 01:59:34;;;;;;;20.05;7.43;;;;;;;11.81;79.89;99467.75;5028345;28;20393;-81
2023/10/05 02:02:00;;;;;;;19.38;7.20;;;;;;;12.32;79.39;99490.78;5007474;28;20090;-81
2023/10/05 02:04:26;;;;;;;16.60;6.57;;;;;;;12.07;80.09;99477.00;5009963;28;20045;-81
2023/10/05 02:06:53;;;;;;;19.05;7.43;;;;;;;12.20;79.63;99478.53;5032060;28;20037;-81
2023/10/05 02:09:19;;;;;;;20.02;6.95;;;;;;;12.04;80.04;99493.53;5031203;28;20538;-81
2023/10/05 02:11:47;;;;;;;23.38;7.43;;;;;;;12.16;79.44;99488.94;5033247;28;20121;-81
2023/10/05 02:14:14;;;;;;;22.83;8.07;;;;;;;11.72;80.58;99477.19;5011392;28;20057;-81
2023/10/05 02:16:41;;;;;;;18.70;7.35;;;;;;;12.07;80.35;99471.66;5015348;28;20039;-81
2023/10/05 02:19:07;;;;;;;23.13;8.95;;;;;;;12.12;79.68;99468.25;5002118;28;20071;-81
2023/10/05 02:21:36;;;;;;;18.25;8.43;;;;;;;11.97;79.93;99469.59;5012589;28;20033;-81
2023/10/05 02:26:54;;;;;;;16.13;7.35;;;;;;;11.84;80.61;99461.88;5032578;28;20159;-81
2023/10/05 02:29:21;;;;;;;16.77;7.40;;;;;;;12.09;79.94;99460.69;5030655;28;20412;-81
2023/10/05 02:32:09;;;;;;;25.65;8.60;;;;;;;12.28;79.39;99476.25;4999402;28;20102;-81
2023/10/05 02:34:39;;;;;;;14.25;7.50;;;;;;;12.08;80.06;99472.47;5024083;28;20067;-81
2023/10/05 02:37:06;;;;;;;20.13;8.02;;;;;;;12.13;79.96;99473.34;5031079;28;20029;-80
2023/10/05 02:39:37;;;;;;;17.52;6.70;;;;;;;12.01;79.51;99465.38;5032688;28;20033;-81
2023/10/05 02:42:12;;;;;;;20.95;7.03;;;;;;;12.08;80.14;99467.13;5031104;28;20044;-81
2023/10/05 02:44:43;;;;;;;15.25;6.43;;;;;;;12.24;79.63;99477.81;5005176;28;20030;-81
2023/10/05 02:47:10;;;;;;;15.85;6.65;;;;;;;12.23;79.37;99470.03;5031852;28;20037;-80
2023/10/05 02:49:40;;;;;;;11.35;6.45;;;;;;;12.20;79.86;99463.28;5032428;28;20025;-82
2023/10/05 02:52:06;;;;;;;20.20;8.38;;;;;;;12.13;79.64;99453.78;5033128;28;20030;-81
2023/10/05 02:54:32;;;;;;;14.02;6.97;;;;;;;12.10;80.18;99462.34;5030100;28;20021;-81
2023/10/05 02:56:57;;;;;;;16.60;7.28;;;;;;;12.16;79.80;99466.69;5022674;28;20029;-81
2023/10/05 02:59:26;;;;;;;17.85;7.20;;;;;;;12.11;79.93;99451.38;5027003;28;20041;-81
2023/10/05 03:02:00;;;;;;;19.15;7.60;;;;;;;12.27;79.46;99460.47;5012573;28;20386;-81
2023/10/05 03:04:44;;;;;;;18.83;7.18;;;;;;;12.21;79.69;99450.72;5029058;28;20505;-81
2023/10/05 03:07:09;;;;;;;20.67;6.85;;;;;;;12.16;79.67;99439.94;5027239;28;20079;-81
2023/10/05 03:09:35;;;;;;;15.20;6.63;;;;;;;12.14;79.83;99426.81;5012430;28;20420;-81
2023/10/05 03:12:00;;;;;;;18.55;7.40;;;;;;;12.04;80.24;99434.66;5027788;28;20068;-80
2023/10/05 03:14:27;;;;;;;16.52;6.85;;;;;;;12.22;79.70;99449.66;5029014;28;20067;-81
2023/10/05 03:16:56;;;;;;;17.17;6.03;;;;;;;12.24;79.46;99455.59;5025920;28;20060;-80
2023/10/05 03:19:22;;;;;;;18.75;6.53;;;;;;;12.08;79.83;99445.72;5026443;28;20033;-80
2023/10/05 03:21:50;;;;;;;18.83;6.43;;;;;;;12.07;79.56;99444.06;5029848;28;20039;-81
2023/10/05 03:24:17;;;;;;;15.23;6.60;;;;;;;12.15;79.60;99449.81;5028979;28;20104;-81
2023/10/05 03:26:43;;;;;;;17.52;6.70;;;;;;;12.13;79.85;99456.47;5011391;28;20489;-81
2023/10/05 03:29:11;;;;;;;15.80;7.03;;;;;;;12.06;80.11;99456.63;5029990;28;20041;-81
2023/10/05 03:32:05;;;;;;;16.45;6.55;;;;;;;12.11;80.23;99455.91;5024054;28;20034;-81
2023/10/05 03:34:32;;;;;;;16.08;6.22;;;;;;;12.07;79.79;99444.06;5024390;28;20036;-81
2023/10/05 03:37:03;;;;;;;18.27;7.18;;;;;;;12.00;79.54;99429.00;5025628;28;20064;-81
2023/10/05 03:39:33;;;;;;;13.43;7.15;;;;;;;12.07;80.07;99436.03;5025673;28;20061;-80
2023/10/05 03:41:59;;;;;;;17.77;7.85;;;;;;;12.07;80.04;99434.19;5011066;28;20033;-81
2023/10/05 03:44:24;;;;;;;13.00;6.22;;;;;;;11.98;80.35;99433.78;5028726;28;20040;-81
2023/10/05 03:46:50;;;;;;;15.98;7.20;;;;;;;11.99;80.23;99427.38;5032342;28;20057;-81
2023/10/05 03:49:18;;;;;;;17.25;6.63;;;;;;;12.04;80.05;99432.81;5028229;28;20036;-84
2023/10/05 03:51:49;;;;;;;14.45;6.05;;;;;;;12.03;79.90;99441.09;5028751;28;20034;-81
2023/10/05 03:54:15;;;;;;;18.65;7.75;;;;;;;12.04;80.16;99451.53;5014292;28;20044;-81
2023/10/05 03:56:42;;;;;;;12.85;6.65;;;;;;;12.04;80.13;99432.00;5029743;28;20373;-81
2023/10/05 03:59:08;;;;;;;16.60;6.68;;;;;;;12.12;79.78;99436.97;5004549;28;20153;-80
2023/10/05 04:01:34;;;;;;;15.65;6.72;;;;;;;12.14;79.74;99442.06;5009299;28;20416;-81
2023/10/05 04:04:04;;;;;;;13.20;6.00;;;;;;;12.09;80.11;99447.31;5020649;28;20106;-80
2023/10/05 04:06:30;;;;;;;13.05;6.43;;;;;;;12.10;79.80;99439.03;5011315;28;20120;-80
2023/10/05 04:08:59;;;;;;;16.10;6.82;;;;;;;11.99;80.46;99434.59;4993179;28;20444;-80
2023/10/05 04:11:26;;;;;;;22.10;7.32;;;;;;;12.24;79.66;99440.34;5012354;28;20064;-80
2023/10/05 04:13:55;;;;;;;16.25;6.95;;;;;;;12.16;79.81;99431.91;5030507;28;20053;-81
2023/10/05 04:16:28;;;;;;;22.67;6.82;;;;;;;11.96;79.88;99427.88;5030228;28;20021;-80
2023/10/05 04:18:54;;;;;;;18.83;7.22;;;;;;;11.97;79.96;99421.44;5025126;28;20028;-81
2023/10/05 04:21:23;;;;;;;12.40;5.93;;;;;;;11.96;80.23;99427.06;5025683;28;20559;-81
2023/10/05 04:23:52;;;;;;;11.15;6.82;;;;;;;12.00;80.16;99431.69;5024465;28;20025;-80
2023/10/05 04:26:22;;;;;;;13.93;6.28;;;;;;;11.83;80.58;99432.72;5045480;28;20080;-80
2023/10/05 04:28:57;;;;;;;21.83;8.38;;;;;;;11.92;80.34;99450.00;5030902;28;20025;-80
2023/10/05 04:31:25;;;;;;;18.83;6.88;;;;;;;11.95;80.73;99438.78;5025516;28;20084;-81
2023/10/05 04:33:55;;;;;;;15.57;6.10;;;;;;;11.99;80.18;99427.38;5029015;28;20025;-80
2023/10/05 04:36:25;;;;;;;12.90;5.93;;;;;;;12.09;79.56;99423.22;5014287;28;20045;-81
2023/10/05 04:38:55;;;;;;;13.13;6.72;;;;;;;12.09;80.02;99421.38;5028322;28;20071;-80
2023/10/05 04:41:28;;;;;;;11.98;6.68;;;;;;;11.94;80.42;99426.47;5006443;28;20087;-81
2023/10/05 04:43:56;;;;;;;20.25;6.53;;;;;;;11.97;79.55;99416.09;5027583;28;20045;-81
2023/10/05 04:46:22;;;;;;;12.07;6.72;;;;;;;11.70;80.30;99403.63;5020562;28;20440;-81
2023/10/05 04:51:32;;;;;;;17.05;6.93;;;;;;;11.80;80.89;99425.97;5020567;28;20040;-81
2023/10/05 04:53:59;;;;;;;16.20;6.28;;;;;;;12.00;79.93;99437.03;4990250;28;20026;-81
2023/10/05 04:56:40;;;;;;;17.52;6.78;;;;;;;12.00;80.25;99431.69;5026014;28;20425;-81
2023/10/05 05:06:59;;;;;;;11.18;5.82;;;;;;;11.85;80.89;99409.22;5029201;28;20033;-81
2023/10/05 05:09:35;;;;;;;13.73;6.10;;;;;;;11.80;80.57;99395.75;5029506;28;20036;-80
2023/10/05 05:12:03;;;;;;;16.70;6.40;;;;;;;11.86;80.42;99397.47;5004572;28;20485;-80
2023/10/05 05:14:33;;;;;;;14.88;6.75;;;;;;;12.01;80.45;99419.13;5030361;28;20308;-80
2023/10/05 05:17:04;;;;;;;12.70;5.75;;;;;;;11.93;80.78;99420.31;5017853;28;20052;-80
2023/10/05 05:19:30;;;;;;;11.55;5.93;;;;;;;11.76;80.82;99424.84;5030079;28;20025;-80
2023/10/05 05:22:05;;;;;;;16.30;6.55;;;;;;;11.65;81.22;99414.19;5028694;28;20493;-80
2023/10/05 05:24:33;;;;;;;15.32;6.18;;;;;;;11.87;80.55;99423.16;5031928;28;20084;-80
2023/10/05 05:27:33;;;;;;;16.42;7.07;;;;;;;11.98;80.38;99432.97;5028974;28;20036;-80
2023/10/05 05:29:51;;;;;;;17.08;6.57;;;;;;;11.94;80.25;99424.63;5017364;28;20098;-80
2023/10/05 05:32:19;;;;;;;12.27;6.22;;;;;;;12.03;79.78;99411.66;5011694;28;20057;-80
2023/10/05 05:34:45;;;;;;;17.38;6.43;;;;;;;11.90;80.72;99423.47;5010013;28;20033;-79
2023/10/05 05:37:19;;;;;;;13.10;6.10;;;;;;;11.97;80.62;99416.09;5023658;28;20048;-80
2023/10/05 05:39:45;;;;;;;14.45;6.45;;;;;;;11.81;81.08;99422.28;5004346;28;20717;-80
2023/10/05 05:42:13;;;;;;;12.10;6.18;;;;;;;11.95;80.65;99420.88;5012366;28;20029;-80
2023/10/05 05:44:43;;;;;;;17.90;6.85;;;;;;;11.93;80.97;99417.63;5005008;28;20474;-80
2023/10/05 05:47:14;;;;;;;19.77;7.03;;;;;;;12.07;80.45;99428.84;5018354;28;20052;-80
2023/10/05 05:49:45;;;;;;;11.10;6.40;;;;;;;12.08;80.06;99435.00;5023543;28;20025;-80
2023/10/05 05:52:12;;;;;;;11.75;5.80;;;;;;;11.99;80.67;99437.28;5026911;28;20032;-80
2023/10/05 05:54:38;;;;;;;15.65;5.97;;;;;;;12.03;80.57;99431.16;5029968;28;20022;-79
2023/10/05 05:57:07;;;;;;;13.23;5.88;;;;;;;12.07;80.24;99441.41;5011302;28;20109;-79
2023/10/05 05:59:38;;;;;;;15.95;5.78;;;;;;;12.06;80.19;99440.56;5022273;28;20029;-80
2023/10/05 06:02:07;;;;;;;15.43;6.25;;;;;;;11.99;80.27;99429.25;5019383;28;20494;-80
2023/10/05 06:04:40;;;;;;;20.52;7.10;;;;;;;12.04;80.35;99451.53;5008030;28;20504;-80
2023/10/05 06:07:16;;;;;;;18.75;6.53;;;;;;;12.07;80.20;99444.06;5027921;28;20508;-80
2023/10/05 06:09:45;;;;;;;16.40;6.63;;;;;;;12.17;79.99;99445.03;5023062;28;20409;-80
2023/10/05 06:12:12;;;;;;;19.77;6.55;;;;;;;12.13;79.88;99440.41;5025984;28;20318;-80
2023/10/05 06:14:40;;;;;;;20.45;5.88;;;;;;;12.07;80.54;99436.03;5009986;28;20064;-80
2023/10/05 06:17:09;;;;;;;13.93;6.55;;;;;;;12.16;80.20;99448.78;4978040;28;20528;-80
2023/10/05 06:19:37;;;;;;;10.27;5.35;;;;;;;11.94;79.79;99429.97;5002917;28;20595;-80
2023/10/05 06:22:06;;;;;;;11.82;5.15;;;;;;;12.14;80.13;99447.41;5026740;28;20029;-80
2023/10/05 06:24:32;;;;;;;13.88;5.63;;;;;;;12.15;80.02;99433.78;5022119;28;20029;-80
2023/10/05 06:27:00;;;;;;;12.90;5.60;;;;;;;12.09;79.78;99420.56;5030639;28;20049;-80
2023/10/05 06:29:25;;;;;;;20.23;5.93;;;;;;;12.15;79.97;99433.78;5013735;28;20448;-80
2023/10/05 06:31:51;;;;;;;13.13;5.57;;;;;;;12.29;79.71;99442.28;5006705;28;20125;-80
2023/10/05 06:34:16;;;;;;;17.30;6.57;;;;;;;12.33;79.50;99448.78;5018271;28;20035;-80
2023/10/05 06:36:42;;;;;;;11.15;5.63;;;;;;;12.35;79.27;99450.16;5018053;28;20033;-80
2023/10/05 06:39:14;;;;;;;15.20;6.10;;;;;;;12.29;79.63;99443.09;5028806;28;20029;-80
2023/10/05 06:41:41;;;;;;;16.38;6.65;;;;;;;12.38;79.54;99452.34;5027036;28;20481;-80
2023/10/05 06:44:10;;;;;;;11.70;6.30;;;;;;;12.28;79.45;99444.16;5025755;28;20026;-80
2023/10/05 06:46:36;;;;;;;12.52;6.13;;;;;;;12.35;79.47;99449.31;5021256;28;20037;-80
2023/10/05 06:49:05;;;;;;;12.65;6.03;;;;;;;12.24;79.86;99435.00;5027206;28;20033;-80
2023/10/05 06:51:31;;;;;;;11.38;5.53;;;;;;;12.23;79.65;99432.56;5010301;28;20033;-80
2023/10/05 06:53:59;;;;;;;14.35;5.90;;;;;;;12.33;79.55;99438.88;5023057;28;20087;-80
2023/10/05 06:56:26;;;;;;;15.15;5.88;;;;;;;12.39;79.73;99450.47;5032223;28;20037;-80
2023/10/05 06:58:52;;;;;;;17.17;5.95;;;;;;;12.36;79.86;99450.97;5008388;28;20481;-80
2023/10/05 07:01:20;;;;;;;13.73;5.30;;;;;;;12.32;79.88;99447.94;5006258;28;20026;-80
2023/10/05 07:03:52;;;;;;;14.23;5.47;;;;;;;12.41;79.24;99451.84;5026877;28;20022;-80
2023/10/05 07:06:22;;;;;;;14.50;5.45;;;;;;;12.49;79.29;99454.09;5025818;28;20481;-80
2023/10/05 07:08:49;;;;;;;15.43;5.97;;;;;;;12.51;79.19;99445.84;5022255;28;20092;-80
2023/10/05 07:11:14;;;;;;;15.52;5.57;;;;;;;12.55;78.87;99460.34;5010815;28;20129;-80
2023/10/05 07:13:39;;;;;;;14.00;5.63;;;;;;;12.62;78.60;99469.03;5024156;28;20113;-80
2023/10/05 07:16:05;;;;;;;11.98;5.72;;;;;;;12.60;78.88;99469.25;5023297;28;20033;-80
2023/10/05 07:18:31;;;;;;;12.93;5.60;;;;;;;12.65;78.75;99465.84;5024927;28;20064;-80
2023/10/05 07:20:57;;;;;;;12.00;5.55;;;;;;;12.58;78.70;99462.53;5029962;28;20075;-81
2023/10/05 07:23:23;;;;;;;17.98;6.70;;;;;;;12.70;78.87;99481.97;5021180;28;20030;-80
2023/10/05 07:25:49;;;;;;;12.30;5.32;;;;;;;12.67;78.80;99475.25;5010663;28;20103;-80
2023/10/05 07:28:14;;;;;;;15.57;5.55;;;;;;;12.72;78.38;99480.69;5024183;28;20056;-80
2023/10/05 07:30:45;;;;;;;12.15;5.30;;;;;;;12.78;77.82;99476.19;5022754;28;20025;-80
2023/10/05 07:33:11;;;;;;;10.15;5.68;;;;;;;12.85;78.53;99489.41;5007850;28;20018;-81
2023/10/05 07:35:38;;;;;;;11.18;4.97;;;;;;;12.93;78.06;99491.69;5031267;28;20033;-80
2023/10/05 07:38:05;;;;;;;12.65;5.40;;;;;;;12.94;77.96;99487.94;5029394;28;20036;-80
2023/10/05 07:40:30;;;;;;;11.95;5.15;;;;;;;12.90;77.87;99479.59;5031579;28;20032;-80
2023/10/05 07:42:56;;;;;;;14.38;5.43;;;;;;;13.07;77.85;99499.13;5029534;28;20033;-81
2023/10/05 07:45:22;;;;;;;11.35;5.05;;;;;;;13.03;78.33;99511.38;5031555;28;20030;-80
2023/10/05 07:47:48;;;;;;;11.63;4.55;;;;;;;12.90;78.28;99490.31;5030175;28;20085;-80
2023/10/05 07:50:14;;;;;;;11.75;5.50;;;;;;;13.09;77.65;99504.25;5008577;28;20615;-80
2023/10/05 07:52:43;;;;;;;11.55;5.20;;;;;;;13.09;77.44;99518.47;5029699;28;20037;-80
2023/10/05 07:55:09;;;;;;;10.35;4.75;;;;;;;13.05;77.62;99511.16;5030249;28;20025;-80
2023/10/05 07:57:35;;;;;;;16.05;5.43;;;;;;;13.00;77.81;99511.88;4996713;28;20064;-80
2023/10/05 08:00:01;;;;;;;15.20;5.55;;;;;;;12.88;78.34;99486.25;5031954;28;20082;-80
2023/10/05 08:02:26;;;;;;;14.95;5.78;;;;;;;13.02;77.89;99517.78;5029134;28;20036;-80
2023/10/05 08:04:52;;;;;;;15.73;5.30;;;;;;;13.08;78.07;99511.50;5014981;28;20161;-80
2023/10/05 08:07:17;;;;;;;14.15;6.20;;;;;;;13.10;77.50;99511.25;5012140;28;20030;-80
2023/10/05 08:09:42;;;;;;;13.50;6.18;;;;;;;13.05;78.44;99514.66;5009588;28;20041;-80
2023/10/05 08:12:09;;;;;;;9.07;4.57;;;;;;;13.09;77.83;99512.28;4995180;28;20496;-80
2023/10/05 08:14:36;;;;;;;16.30;5.68;;;;;;;13.08;77.43;99514.19;5028276;28;20041;-80
2023/10/05 08:17:03;;;;;;;13.38;5.50;;;;;;;13.21;77.77;99529.06;5019674;28;20033;-80
2023/10/05 08:19:29;;;;;;;11.98;6.03;;;;;;;13.05;78.13;99528.06;5027276;28;20040;-81
2023/10/05 08:21:55;;;;;;;12.88;5.35;;;;;;;13.23;77.46;99541.19;5030568;28;20481;-81
2023/10/05 08:24:23;;;;;;;13.50;5.35;;;;;;;13.35;77.33;99533.81;5032641;28;20022;-81
2023/10/05 08:26:52;;;;;;;20.17;5.00;;;;;;;13.27;77.15;99530.75;5030709;28;20099;-80
2023/10/05 08:29:22;;;;;;;12.40;5.18;;;;;;;13.39;77.50;99542.97;5029990;28;20116;-80
2023/10/05 08:31:48;;;;;;;10.23;4.53;;;;;;;13.37;77.60;99536.22;5022207;28;20128;-80
2023/10/05 08:34:20;;;;;;;10.50;5.20;;;;;;;13.37;77.04;99533.56;5014640;28;20536;-80
2023/10/05 08:36:54;;;;;;;13.18;5.15;;;;;;;13.38;77.51;99533.31;5013849;28;20053;-80
2023/10/05 08:39:25;;;;;;;14.70;5.88;;;;;;;13.50;76.97;99523.25;5001398;28;20125;-80
2023/10/05 08:41:54;;;;;;;12.85;5.15;;;;;;;13.46;78.10;99540.09;5030189;28;20033;-80
2023/10/05 08:44:26;;;;;;;13.65;4.88;;;;;;;13.50;77.11;99519.75;5014956;28;20118;-80
2023/10/05 08:46:53;;;;;;;10.90;4.90;;;;;;;13.53;76.85;99530.81;5027948;28;20134;-80
2023/10/05 08:49:19;;;;;;;16.70;5.60;;;;;;;13.59;76.59;99536.22;5022214;28;20036;-80
2023/10/05 08:51:44;;;;;;;9.10;4.97;;;;;;;13.69;76.71;99537.16;5024155;28;20036;-80
2023/10/05 08:54:11;;;;;;;13.20;5.10;;;;;;;13.78;76.72;99554.41;5014803;28;20093;-80
2023/10/05 08:56:41;;;;;;;14.68;5.05;;;;;;;13.74;76.97;99536.41;5028031;28;20025;-80
2023/10/05 08:59:13;;;;;;;9.63;5.13;;;;;;;13.64;77.08;99538.97;5028062;28;20021;-80
2023/10/05 09:01:50;;;;;;;14.75;5.88;;;;;;;13.79;76.83;99544.50;5016771;28;20462;-80
2023/10/05 09:07:08;;;;;;;11.77;4.72;;;;;;;13.91;76.66;99561.28;5028977;28;20030;-81
2023/10/05 09:09:39;;;;;;;11.77;5.00;;;;;;;13.81;76.83;99553.09;5015247;28;20112;-80
2023/10/05 09:12:34;;;;;;;9.73;5.18;;;;;;;14.02;76.05;99571.06;5028596;28;20064;-80
2023/10/05 09:15:22;;;;;;;10.63;4.88;;;;;;;13.97;76.59;99561.09;5024043;28;20022;-81
2023/10/05 09:17:57;;;;;;;10.40;4.72;;;;;;;14.11;76.62;99569.53;5010304;28;20049;-80
2023/10/05 09:20:33;;;;;;;14.35;4.93;;;;;;;14.09;76.38;99558.22;5023299;28;20025;-80
2023/10/05 09:23:13;;;;;;;9.05;4.82;;;;;;;14.14;76.21;99567.16;5020676;28;20094;-81
2023/10/05 09:25:48;;;;;;;8.75;4.75;;;;;;;14.08;76.28;99553.94;5013621;28;20029;-80
2023/10/05 09:28:28;;;;;;;16.30;5.28;;;;;;;14.16;75.98;99556.97;5023278;28;20466;-81
2023/10/05 09:30:59;;;;;;;10.20;5.82;;;;;;;14.13;76.20;99570.09;5025877;28;20124;-80
2023/10/05 09:33:34;;;;;;;11.25;5.18;;;;;;;14.09;76.82;99572.47;5020585;28;20038;-80
2023/10/05 09:36:16;;;;;;;12.95;4.60;;;;;;;14.09;76.33;99563.59;5028108;28;20025;-81
2023/10/05 09:38:45;;;;;;;10.65;4.72;;;;;;;14.07;76.35;99563.03;5003604;28;20485;-81
2023/10/05 09:41:15;;;;;;;15.45;4.68;;;;;;;14.16;76.16;99580.31;4992152;28;20026;-81
2023/10/05 09:43:42;;;;;;;12.40;4.82;;;;;;;14.17;75.69;99577.41;5025147;28;20026;-80
2023/10/05 09:46:09;;;;;;;7.38;4.43;;;;;;;14.15;76.18;99573.34;5012247;28;20033;-81
2023/10/05 09:48:39;;;;;;;11.05;4.82;;;;;;;14.11;75.64;99567.66;5028990;28;20037;-81
2023/10/05 09:51:13;;;;;;;12.50;5.13;;;;;;;14.18;76.11;99591.63;5019962;28;20041;-80
2023/10/05 09:53:43;;;;;;;11.93;4.50;;;;;;;14.16;76.52;99578.47;5027179;28;20511;-80
2023/10/05 09:56:12;;;;;;;18.00;5.68;;;;;;;14.09;75.94;99579.72;5012707;28;20033;-81
2023/10/05 09:58:39;;;;;;;10.38;4.75;;;;;;;14.20;75.53;99581.44;5034316;28;20473;-80
2023/10/05 10:01:12;;;;;;;15.20;5.13;;;;;;;14.19;75.50;99572.59;5025721;28;20040;-80
2023/10/05 10:03:45;;;;;;;11.13;4.97;;;;;;;14.24;76.07;99579.88;5020952;28;20396;-80
2023/10/05 10:06:14;;;;;;;8.48;4.10;;;;;;;14.30;76.13;99578.06;5029774;28;20434;-80
2023/10/05 10:08:51;;;;;;;10.52;4.70;;;;;;;14.22;76.26;99565.88;5030603;28;20091;-80
2023/10/05 10:11:18;;;;;;;11.85;4.18;;;;;;;14.24;75.92;99579.88;5027102;28;20025;-81
2023/10/05 10:14:00;;;;;;;11.55;4.82;;;;;;;14.29;75.98;99579.94;5008276;28;20036;-81
2023/10/05 10:16:27;;;;;;;9.25;4.35;;;;;;;14.38;75.44;99575.75;5028871;28;20037;-80
2023/10/05 10:19:03;;;;;;;17.38;4.82;;;;;;;14.37;76.66;99578.69;5030631;28;20037;-81
2023/10/05 10:24:40;;;;;;;11.23;4.00;;;;;;;14.33;75.21;99556.88;4988509;28;20045;-80
2023/10/05 10:27:14;;;;;;;10.55;4.10;;;;;;;14.32;75.16;99571.38;5030639;28;20608;-81
2023/10/05 10:29:51;;;;;;;10.23;3.80;;;;;;;14.49;74.90;99590.06;5018419;28;20029;-81
2023/10/05 10:32:22;;;;;;;9.88;3.92;;;;;;;14.51;74.31;99580.69;5035177;28;20522;-80
2023/10/05 10:35:10;;;;;;;13.13;3.72;;;;;;;14.43;74.04;99575.78;5030775;28;20120;-80
2023/10/05 10:37:48;;;;;;;12.45;3.92;;;;;;;14.55;73.55;99564.84;5032422;28;20025;-81
2023/10/05 10:45:33;;;;;;;12.43;4.50;;;;;;;14.68;72.82;99575.97;5033003;28;20079;-81
2023/10/05 10:47:59;;;;;;;11.73;3.72;;;;;;;14.71;72.92;99590.78;5034512;28;20151;-81
2023/10/05 10:50:30;;;;;;;11.73;4.05;;;;;;;14.62;73.03;99585.06;5033328;28;20061;-81
2023/10/05 10:52:58;;;;;;;12.35;4.18;;;;;;;14.72;72.90;99589.72;5017361;28;20029;-81
2023/10/05 10:55:31;;;;;;;7.90;3.10;;;;;;;14.80;72.57;99587.38;5034775;28;20022;-81
2023/10/05 10:57:59;;;;;;;9.98;3.80;;;;;;;14.74;73.15;99592.97;5031071;28;20591;-81
2023/10/05 11:03:11;;;;;;;7.63;3.75;;;;;;;14.86;72.52;99589.03;5033340;28;20041;-80
2023/10/05 11:05:54;;;;;;;12.43;4.20;;;;;;;14.77;72.75;99598.63;5033183;28;20025;-81
2023/10/05 11:08:22;;;;;;;14.35;3.95;;;;;;;14.71;72.76;99580.84;5032346;28;20025;-81
2023/10/05 11:11:09;;;;;;;13.77;3.67;;;;;;;14.83;71.76;99592.22;5032269;28;20504;-81
2023/10/05 11:14:07;;;;;;;7.75;3.50;;;;;;;14.94;72.09;99596.59;5043350;28;20032;-81
2023/10/05 11:16:49;;;;;;;8.48;3.80;;;;;;;15.01;71.43;99586.44;5033766;28;20446;-81
2023/10/05 11:19:24;;;;;;;9.88;4.15;;;;;;;15.03;71.88;99592.38;5032980;28;20036;-81
2023/10/05 11:21:50;;;;;;;16.17;3.58;;;;;;;15.10;71.70;99584.06;4998306;28;20470;-81
2023/10/05 11:24:18;;;;;;;7.25;3.70;;;;;;;15.11;71.30;99583.03;5032482;28;20048;-81
2023/10/05 11:27:08;;;;;;;10.40;3.67;;;;;;;15.22;71.45;99600.84;5016793;28;20041;-81
2023/10/05 11:29:43;;;;;;;13.27;3.78;;;;;;;15.30;70.54;99604.91;5033570;28;20116;-81
2023/10/05 11:32:19;;;;;;;9.30;3.85;;;;;;;15.29;70.83;99592.53;5030311;28;20025;-80
2023/10/05 11:34:46;;;;;;;12.98;4.13;;;;;;;15.20;71.06;99602.16;5028910;28;20393;-81
2023/10/05 11:37:16;;;;;;;18.52;4.60;;;;;;;15.04;70.96;99579.75;5033693;28;20029;-81
2023/10/05 11:39:50;;;;;;;6.45;3.58;;;;;;;15.11;71.19;99572.25;5033809;28;20108;-81
2023/10/05 11:42:25;;;;;;;9.93;4.30;;;;;;;15.26;70.71;99585.81;5033415;28;20033;-81
2023/10/05 11:44:56;;;;;;;7.75;3.15;;;;;;;15.21;70.01;99574.19;5031021;28;20021;-81
2023/10/05 11:47:25;;;;;;;11.95;4.72;;;;;;;15.17;70.90;99581.16;5023700;28;20036;-81
2023/10/05 11:49:50;;;;;;;8.70;4.15;;;;;;;15.22;70.66;99583.88;4996538;28;20033;-81
2023/10/05 11:52:17;;;;;;;11.35;4.05;;;;;;;15.24;70.52;99577.19;4996294;28;20056;-81
2023/10/05 11:54:42;;;;;;;8.93;4.18;;;;;;;15.23;70.16;99585.50;5013964;28;20107;-81
2023/10/05 11:57:08;;;;;;;10.82;3.88;;;;;;;15.20;70.47;99572.59;5015682;28;20077;-81
2023/10/05 11:59:35;;;;;;;8.23;3.63;;;;;;;15.18;70.28;99578.19;5012450;28;20021;-81
2023/10/05 12:02:05;;;;;;;12.00;4.13;;;;;;;15.18;71.03;99586.28;5015589;28;20025;-80
2023/10/05 12:04:31;;;;;;;14.48;4.47;;;;;;;15.20;70.81;99578.75;5028506;28;20378;-80
2023/10/05 12:06:59;;;;;;;7.05;3.83;;;;;;;15.12;70.99;99581.94;4988258;28;20557;-80
2023/10/05 12:09:32;;;;;;;9.13;4.43;;;;;;;15.06;71.37;99576.78;5024433;28;20056;-80
2023/10/05 12:11:58;;;;;;;8.38;4.32;;;;;;;15.06;70.92;99585.66;5025585;28;20048;-80
2023/10/05 12:14:25;;;;;;;13.60;4.63;;;;;;;15.13;71.24;99582.75;5016298;28;20378;-80
2023/10/05 12:16:52;;;;;;;10.35;4.25;;;;;;;15.18;71.07;99580.88;5010367;28;20029;-82
2023/10/05 12:19:27;;;;;;;13.18;4.07;;;;;;;15.26;70.79;99577.72;5023215;28;20021;-82
2023/10/05 12:21:55;;;;;;;10.85;3.97;;;;;;;15.31;70.33;99577.75;5028893;28;20033;-82